createdAt,value
2019-06-10T00:01:06.991Z,17.13
2019-06-10T00:03:36.515Z,16.86
2019-06-10T00:06:07.038Z,16.67
2019-06-10T00:08:37.511Z,16.45
2019-06-10T00:11:07.977Z,16.38
2019-06-10T00:13:38.344Z,16.24
2019-06-10T00:16:11.305Z,16.12
2019-06-10T00:18:45.138Z,16.01
2019-06-10T00:21:13.190Z,15.90
2019-06-10T00:23:43.664Z,16.74
2019-06-10T00:26:14.194Z,18.25
2019-06-10T00:28:44.618Z,19.48
2019-06-10T00:31:15.066Z,20.31
2019-06-10T00:33:45.468Z,20.27
2019-06-10T00:36:15.895Z,19.65
2019-06-10T00:38:46.292Z,19.00
2019-06-10T00:41:16.755Z,18.37
2019-06-10T00:43:47.179Z,17.86
2019-06-10T00:46:17.569Z,17.43
2019-06-10T00:48:48.054Z,17.08
2019-06-10T00:51:20.780Z,16.80
2019-06-10T00:53:51.362Z,16.55
2019-06-10T00:56:21.982Z,16.38
2019-06-10T00:58:52.369Z,16.21
2019-06-10T01:01:22.756Z,16.05
2019-06-10T01:03:53.341Z,16.80
2019-06-10T01:06:23.848Z,18.21
2019-06-10T01:08:54.260Z,19.43
2019-06-10T01:11:27.125Z,20.34
2019-06-10T01:13:56.707Z,20.39
2019-06-10T01:16:27.052Z,19.78
2019-06-10T01:18:57.443Z,19.19
2019-06-10T01:21:27.803Z,18.62
2019-06-10T01:23:58.231Z,18.08
2019-06-10T01:26:30.841Z,17.66
2019-06-10T01:29:01.067Z,17.28
2019-06-10T01:31:31.905Z,16.93
2019-06-10T01:34:02.345Z,16.67
2019-06-10T01:36:32.770Z,16.42
2019-06-10T01:39:03.550Z,16.22
2019-06-10T01:41:33.921Z,15.98
2019-06-10T01:44:04.400Z,16.62
2019-06-10T01:46:34.855Z,17.93
2019-06-10T01:49:05.336Z,18.99
2019-06-10T01:51:35.818Z,19.78
2019-06-10T01:54:07.362Z,20.34
2019-06-10T01:56:37.954Z,20.13
2019-06-10T01:59:10.968Z,19.41
2019-06-10T02:01:44.592Z,18.72
2019-06-10T02:04:16.570Z,18.07
2019-06-10T02:06:47.689Z,17.56
2019-06-10T02:09:18.817Z,17.14
2019-06-10T02:11:51.394Z,16.76
2019-06-10T02:14:24.241Z,16.43
2019-06-10T02:16:54.567Z,16.17
2019-06-10T02:19:25.033Z,16.00
2019-06-10T02:21:55.451Z,15.85
2019-06-10T02:24:25.999Z,15.72
2019-06-10T02:26:56.459Z,16.53
2019-06-10T02:29:26.868Z,18.08
2019-06-10T02:31:57.236Z,19.37
2019-06-10T02:34:28.622Z,20.30
2019-06-10T02:36:59.222Z,20.39
2019-06-10T02:39:35.048Z,19.68
2019-06-10T02:42:05.828Z,18.95
2019-06-10T02:44:37.675Z,18.25
2019-06-10T02:47:08.272Z,17.79
2019-06-10T02:49:55.720Z,17.38
2019-06-10T02:52:23.276Z,17.14
2019-06-10T02:54:53.585Z,16.87
2019-06-10T02:57:30.440Z,16.73
2019-06-10T02:59:56.404Z,16.63
2019-06-10T03:02:31.819Z,16.58
2019-06-10T03:04:58.877Z,16.56
2019-06-10T03:07:32.619Z,16.56
2019-06-10T03:10:04.517Z,16.55
2019-06-10T03:12:33.478Z,16.58
2019-06-10T03:15:05.187Z,16.60
2019-06-10T03:17:35.675Z,16.63
2019-06-10T03:20:07.605Z,16.69
2019-06-10T03:22:38.140Z,16.69
2019-06-10T03:25:10.187Z,16.71
2019-06-10T03:27:42.448Z,16.80
2019-06-10T03:30:17.198Z,16.89
2019-06-10T03:32:46.628Z,16.97
2019-06-10T03:35:17.363Z,17.06
2019-06-10T03:37:47.845Z,17.18
2019-06-10T03:40:18.545Z,17.25
2019-06-10T03:42:48.957Z,17.38
2019-06-10T03:45:19.339Z,17.48
2019-06-10T03:47:49.705Z,17.62
2019-06-10T03:50:21.897Z,17.68
2019-06-10T03:52:52.514Z,17.80
2019-06-10T03:55:25.011Z,17.83
2019-06-10T03:57:54.991Z,17.86
2019-06-10T04:00:27.192Z,17.82
2019-06-10T04:02:57.460Z,17.69
2019-06-10T04:05:28.863Z,17.68
2019-06-10T04:08:02.003Z,17.68
2019-06-10T04:10:32.456Z,17.64
2019-06-10T04:13:02.989Z,17.59
2019-06-10T04:15:33.641Z,17.61
2019-06-10T04:18:04.152Z,17.62
2019-06-10T04:20:34.610Z,17.72
2019-06-10T04:23:05.008Z,17.80
2019-06-10T04:25:36.442Z,17.85
2019-06-10T04:28:06.803Z,17.93
2019-06-10T04:30:37.275Z,18.03
2019-06-10T04:33:07.695Z,18.13
2019-06-10T04:35:38.098Z,18.25
2019-06-10T04:38:08.472Z,18.32
2019-06-10T04:40:38.888Z,18.31
2019-06-10T04:43:09.281Z,18.43
2019-06-10T04:45:39.666Z,18.48
2019-06-10T04:48:12.300Z,18.54
2019-06-10T04:50:46.208Z,18.62
2019-06-10T04:53:14.275Z,18.65
2019-06-10T04:55:44.751Z,18.69
2019-06-10T04:58:15.143Z,18.75
2019-06-10T05:00:45.999Z,18.82
2019-06-10T05:03:16.580Z,18.93
2019-06-10T05:05:47.520Z,19.04
2019-06-10T05:08:18.999Z,19.11
2019-06-10T05:10:49.428Z,19.17
2019-06-10T05:13:19.819Z,19.24
2019-06-10T05:15:52.583Z,19.29
2019-06-10T05:18:24.237Z,19.43
2019-06-10T05:20:58.548Z,19.54
2019-06-10T05:23:27.895Z,19.66
2019-06-10T05:25:58.514Z,19.93
2019-06-10T05:28:30.014Z,20.29
2019-06-10T05:31:02.759Z,20.64
2019-06-10T05:33:33.499Z,20.81
2019-06-10T05:36:04.730Z,20.95
2019-06-10T05:38:35.484Z,20.99
2019-06-10T05:41:07.049Z,21.01
2019-06-10T05:43:37.490Z,20.95
2019-06-10T05:46:08.059Z,20.92
2019-06-10T05:48:38.529Z,20.88
2019-06-10T05:51:08.917Z,20.89
2019-06-10T05:53:39.308Z,20.95
2019-06-10T05:56:09.866Z,21.08
2019-06-10T05:58:40.274Z,21.28
2019-06-10T06:01:12.967Z,21.45
2019-06-10T06:03:43.913Z,21.68
2019-06-10T06:06:14.926Z,21.85
2019-06-10T06:08:45.426Z,21.87
2019-06-10T06:11:15.861Z,21.94
2019-06-10T06:13:46.357Z,22.01
2019-06-10T06:16:16.850Z,22.21
2019-06-10T06:18:47.336Z,22.53
2019-06-10T06:21:25.470Z,22.90
2019-06-10T06:23:52.608Z,23.20
2019-06-10T06:26:23.608Z,23.37
2019-06-10T06:28:54.536Z,23.48
2019-06-10T06:31:26.170Z,23.53
2019-06-10T06:33:57.103Z,23.62
2019-06-10T06:36:28.638Z,23.75
2019-06-10T06:38:59.115Z,23.85
2019-06-10T06:41:29.641Z,23.88
2019-06-10T06:44:02.159Z,23.82
2019-06-10T06:46:35.011Z,23.83
2019-06-10T06:49:04.308Z,23.96
2019-06-10T06:51:47.388Z,24.17
2019-06-10T06:54:06.990Z,24.34
2019-06-10T06:56:38.996Z,24.47
2019-06-10T06:59:09.822Z,24.48
2019-06-10T07:01:44.103Z,24.71
2019-06-10T07:04:13.490Z,24.90
2019-06-10T07:06:44.565Z,25.12
2019-06-10T07:09:14.950Z,25.30
2019-06-10T07:11:45.589Z,25.51
2019-06-10T07:14:16.911Z,25.71
2019-06-10T07:16:47.439Z,25.91
2019-06-10T07:19:17.821Z,26.05
2019-06-10T07:22:07.456Z,26.19
2019-06-10T07:24:20.329Z,26.28
2019-06-10T07:26:54.677Z,26.29
2019-06-10T07:29:23.057Z,26.38
2019-06-10T07:31:53.916Z,26.52
2019-06-10T07:34:24.397Z,26.50
2019-06-10T07:36:54.982Z,26.49
2019-06-10T07:39:25.480Z,26.46
2019-06-10T07:41:56.881Z,26.44
2019-06-10T07:44:27.375Z,26.49
2019-06-10T07:46:58.763Z,26.53
2019-06-10T07:49:29.286Z,26.67
2019-06-10T07:52:14.887Z,26.79
2019-06-10T07:54:33.243Z,26.94
2019-06-10T07:57:04.381Z,27.04
2019-06-10T07:59:35.413Z,27.21
2019-06-10T08:02:05.992Z,27.33
2019-06-10T08:04:38.049Z,27.45
2019-06-10T08:07:08.711Z,27.46
2019-06-10T08:09:39.205Z,27.45
2019-06-10T08:12:09.712Z,27.48
2019-06-10T08:14:42.245Z,27.53
2019-06-10T08:17:12.918Z,27.53
2019-06-10T08:19:48.853Z,27.52
2019-06-10T08:22:29.820Z,27.59
2019-06-10T08:24:48.136Z,27.66
2019-06-10T08:27:19.105Z,27.67
2019-06-10T08:29:58.552Z,27.69
2019-06-10T08:32:24.502Z,27.75
2019-06-10T08:34:54.225Z,27.70
2019-06-10T08:37:24.689Z,27.72
2019-06-10T08:39:55.252Z,27.69
2019-06-10T08:42:25.804Z,27.70
2019-06-10T08:44:59.707Z,27.77
2019-06-10T08:47:28.588Z,27.84
2019-06-10T08:49:59.089Z,27.93
2019-06-10T08:52:29.638Z,28.10
2019-06-10T08:55:03.147Z,28.27
2019-06-10T08:57:33.512Z,28.34
2019-06-10T09:00:12.507Z,28.41
2019-06-10T09:02:41.065Z,28.31
2019-06-10T09:05:17.670Z,28.27
2019-06-10T09:07:51.256Z,28.28
2019-06-10T09:10:22.633Z,28.25
2019-06-10T09:12:54.672Z,28.24
2019-06-10T09:15:25.326Z,28.30
2019-06-10T09:17:56.212Z,28.36
2019-06-10T09:20:27.184Z,28.54
2019-06-10T09:23:16.830Z,28.76
2019-06-10T09:25:33.310Z,28.85
2019-06-10T09:28:03.037Z,28.86
2019-06-10T09:30:33.555Z,28.97
2019-06-10T09:33:04.836Z,28.94
2019-06-10T09:35:35.612Z,28.92
2019-06-10T09:38:06.210Z,28.96
2019-06-10T09:40:59.017Z,29.00
2019-06-10T09:43:23.293Z,29.04
2019-06-10T09:45:56.379Z,29.06
2019-06-10T09:48:26.101Z,29.09
2019-06-10T09:50:58.800Z,29.03
2019-06-10T09:53:34.992Z,28.81
2019-06-10T09:56:04.102Z,28.64
2019-06-10T09:58:33.521Z,28.51
2019-06-10T10:01:04.828Z,28.35
2019-06-10T10:03:35.420Z,28.31
2019-06-10T10:06:13.997Z,28.32
2019-06-10T10:08:38.072Z,28.17
2019-06-10T10:11:08.726Z,28.10
2019-06-10T10:13:39.344Z,28.04
2019-06-10T10:16:09.825Z,28.01
2019-06-10T10:18:42.516Z,27.90
2019-06-10T10:21:13.033Z,27.76
2019-06-10T10:23:53.981Z,27.72
2019-06-10T10:26:16.129Z,27.70
2019-06-10T10:28:49.913Z,27.77
2019-06-10T10:31:18.703Z,27.88
2019-06-10T10:33:50.462Z,28.00
2019-06-10T10:36:22.572Z,28.01
2019-06-10T10:38:53.586Z,28.13
2019-06-10T10:41:24.216Z,28.21
2019-06-10T10:43:57.809Z,28.24
2019-06-10T10:46:27.155Z,28.30
2019-06-10T10:48:57.835Z,28.35
2019-06-10T10:51:28.171Z,28.38
2019-06-10T10:54:28.487Z,28.35
2019-06-10T10:56:33.386Z,28.39
2019-06-10T10:59:03.477Z,28.55
2019-06-10T11:01:35.029Z,28.69
2019-06-10T11:04:05.779Z,28.89
2019-06-10T11:06:37.866Z,29.16
2019-06-10T11:09:09.599Z,29.45
2019-06-10T11:11:43.641Z,29.65
2019-06-10T11:14:15.003Z,29.84
2019-06-10T11:16:45.527Z,29.84
2019-06-10T11:19:16.230Z,29.81
2019-06-10T11:21:47.421Z,29.81
2019-06-10T11:24:32.864Z,29.87
2019-06-10T11:26:53.193Z,29.91
2019-06-10T11:29:23.095Z,29.92
2019-06-10T11:31:55.699Z,29.95
2019-06-10T11:34:26.548Z,29.95
2019-06-10T11:36:58.178Z,29.91
2019-06-10T11:39:28.788Z,29.95
2019-06-10T11:41:59.159Z,29.96
2019-06-10T11:44:30.057Z,29.91
2019-06-10T11:47:07.320Z,29.79
2019-06-10T11:49:37.869Z,29.87
2019-06-10T11:52:12.439Z,29.93
2019-06-10T11:54:55.705Z,30.13
2019-06-10T11:57:14.171Z,30.31
2019-06-10T11:59:44.594Z,30.39
2019-06-10T12:02:15.050Z,30.41
2019-06-10T12:04:45.656Z,30.31
2019-06-10T12:07:16.387Z,30.29
2019-06-10T12:09:46.942Z,30.40
2019-06-10T12:12:17.475Z,30.56
2019-06-10T12:14:49.281Z,30.51
2019-06-10T12:17:35.233Z,30.40
2019-06-10T12:19:55.606Z,30.43
2019-06-10T12:22:24.577Z,30.43
2019-06-10T12:25:21.084Z,30.44
2019-06-10T12:27:27.219Z,30.64
2019-06-10T12:30:00.263Z,30.70
2019-06-10T12:32:33.013Z,30.78
2019-06-10T12:35:05.343Z,30.97
2019-06-10T12:37:36.253Z,31.12
2019-06-10T12:40:12.786Z,31.16
2019-06-10T12:42:43.099Z,31.25
2019-06-10T12:45:13.859Z,31.32
2019-06-10T12:47:44.400Z,31.46
2019-06-10T12:50:14.978Z,31.53
2019-06-10T12:52:45.347Z,31.66
2019-06-10T12:55:15.897Z,31.70
2019-06-10T12:57:46.383Z,31.72
2019-06-10T13:00:23.255Z,31.72
2019-06-10T13:02:53.023Z,31.66
2019-06-10T13:05:23.033Z,31.57
2019-06-10T13:07:53.776Z,31.49
2019-06-10T13:10:42.927Z,31.53
2019-06-10T13:13:13.521Z,31.66
2019-06-10T13:15:43.978Z,31.70
2019-06-10T13:18:19.164Z,31.70
2019-06-10T13:20:46.438Z,31.74
2019-06-10T13:23:23.849Z,31.93
2019-06-10T13:25:55.347Z,32.11
2019-06-10T13:28:22.265Z,32.17
2019-06-10T13:30:54.485Z,32.24
2019-06-10T13:33:25.016Z,32.32
2019-06-10T13:35:56.695Z,32.35
2019-06-10T13:38:27.619Z,32.32
2019-06-10T13:40:59.476Z,32.31
2019-06-10T13:43:33.044Z,32.32
2019-06-10T13:46:03.107Z,32.43
2019-06-10T13:48:34.281Z,32.62
2019-06-10T13:51:09.120Z,32.69
2019-06-10T13:53:36.953Z,32.82
2019-06-10T13:56:34.697Z,32.91
2019-06-10T13:58:45.031Z,33.00
2019-06-10T14:01:20.761Z,33.06
2019-06-10T14:03:44.184Z,33.30
2019-06-10T14:06:32.583Z,33.47
2019-06-10T14:08:47.018Z,33.58
2019-06-10T14:11:18.968Z,33.45
2019-06-10T14:13:52.428Z,33.26
2019-06-10T14:16:23.424Z,33.21
2019-06-10T14:18:54.396Z,33.21
2019-06-10T14:21:24.916Z,33.24
2019-06-10T14:23:55.341Z,33.27
2019-06-10T14:26:39.858Z,33.38
2019-06-10T14:28:58.148Z,33.61
2019-06-10T14:31:42.848Z,33.68
2019-06-10T14:34:00.771Z,33.72
2019-06-10T14:36:32.541Z,33.99
2019-06-10T14:39:06.029Z,34.23
2019-06-10T14:41:36.573Z,34.46
2019-06-10T14:44:08.603Z,34.50
2019-06-10T14:46:39.248Z,34.51
2019-06-10T14:49:10.853Z,34.73
2019-06-10T14:51:43.107Z,34.81
2019-06-10T14:54:18.022Z,34.95
2019-06-10T14:56:53.623Z,35.22
2019-06-10T14:59:22.301Z,35.45
2019-06-10T15:01:52.274Z,35.62
2019-06-10T15:04:23.056Z,35.67
2019-06-10T15:06:53.934Z,35.75
2019-06-10T15:09:24.402Z,35.73
2019-06-10T15:11:54.963Z,35.69
2019-06-10T15:14:25.403Z,35.57
2019-06-10T15:16:55.899Z,35.57
2019-06-10T15:19:29.033Z,35.63
2019-06-10T15:21:58.413Z,35.59
2019-06-10T15:24:28.784Z,35.52
2019-06-10T15:27:11.937Z,35.60
2019-06-10T15:29:32.856Z,35.79
2019-06-10T15:32:14.643Z,35.82
2019-06-10T15:34:36.465Z,35.72
2019-06-10T15:37:06.945Z,35.51
2019-06-10T15:39:37.347Z,35.45
2019-06-10T15:42:07.741Z,35.48
2019-06-10T15:44:48.598Z,35.59
2019-06-10T15:47:13.865Z,35.66
2019-06-10T15:49:42.313Z,35.77
2019-06-10T15:52:13.916Z,35.90
2019-06-10T15:54:44.798Z,35.83
2019-06-10T15:57:31.780Z,35.92
2019-06-10T15:59:47.330Z,35.92
2019-06-10T16:02:19.467Z,35.51
2019-06-10T16:04:52.442Z,34.94
2019-06-10T16:07:25.364Z,34.40
2019-06-10T16:09:54.340Z,33.84
2019-06-10T16:12:26.794Z,33.24
2019-06-10T16:14:56.949Z,32.76
2019-06-10T16:17:30.073Z,32.39
2019-06-10T16:19:59.438Z,32.10
2019-06-10T16:22:29.893Z,31.90
2019-06-10T16:25:00.258Z,31.72
2019-06-10T16:27:46.294Z,31.50
2019-06-10T16:30:02.938Z,31.32
2019-06-10T16:32:33.329Z,31.19
2019-06-10T16:35:05.741Z,31.01
2019-06-10T16:37:36.198Z,30.84
2019-06-10T16:40:07.001Z,30.70
2019-06-10T16:42:37.424Z,30.63
2019-06-10T16:45:07.779Z,30.54
2019-06-10T16:47:38.317Z,30.50
2019-06-10T16:50:09.310Z,30.41
2019-06-10T16:52:42.946Z,30.36
2019-06-10T16:55:12.745Z,30.27
2019-06-10T16:57:58.396Z,30.18
2019-06-10T17:00:15.505Z,30.12
2019-06-10T17:02:46.169Z,30.05
2019-06-10T17:05:16.648Z,29.96
2019-06-10T17:07:47.522Z,29.84
2019-06-10T17:10:17.900Z,29.73
2019-06-10T17:12:49.954Z,29.65
2019-06-10T17:15:21.088Z,29.57
2019-06-10T17:17:52.200Z,29.42
2019-06-10T17:20:23.614Z,29.34
2019-06-10T17:22:54.778Z,29.26
2019-06-10T17:25:26.557Z,29.18
2019-06-10T17:27:57.361Z,29.11
2019-06-10T17:30:28.502Z,29.04
2019-06-10T17:32:59.562Z,28.96
2019-06-10T17:35:32.959Z,28.85
2019-06-10T17:38:02.821Z,28.81
2019-06-10T17:40:33.725Z,28.76
2019-06-10T17:43:04.349Z,28.68
2019-06-10T17:45:34.896Z,28.64
2019-06-10T17:48:05.306Z,28.62
2019-06-10T17:50:35.695Z,28.54
2019-06-10T17:53:06.140Z,28.48
2019-06-10T17:55:36.524Z,28.45
2019-06-10T17:58:06.961Z,28.38
2019-06-10T18:00:37.357Z,28.32
2019-06-10T18:03:08.033Z,28.31
2019-06-10T18:05:38.566Z,28.24
2019-06-10T18:08:09.039Z,28.18
2019-06-10T18:10:39.577Z,28.18
2019-06-10T18:13:16.414Z,28.14
2019-06-10T18:15:42.350Z,28.08
2019-06-10T18:18:13.032Z,28.01
2019-06-10T18:20:44.355Z,28.00
2019-06-10T18:23:14.863Z,27.91
2019-06-10T18:25:45.263Z,27.87
2019-06-10T18:28:15.708Z,27.83
2019-06-10T18:30:46.545Z,27.79
2019-06-10T18:33:16.937Z,27.73
2019-06-10T18:35:47.373Z,27.67
2019-06-10T18:38:17.925Z,27.59
2019-06-10T18:40:48.331Z,27.50
2019-06-10T18:43:18.724Z,27.39
2019-06-10T18:45:49.148Z,27.33
2019-06-10T18:48:19.572Z,27.24
2019-06-10T18:50:52.555Z,27.14
2019-06-10T18:53:23.428Z,27.05
2019-06-10T18:55:54.975Z,26.97
2019-06-10T18:58:25.528Z,26.90
2019-06-10T19:01:03.921Z,26.83
2019-06-10T19:03:28.698Z,26.73
2019-06-10T19:05:59.166Z,26.64
2019-06-10T19:08:29.555Z,26.53
2019-06-10T19:11:02.358Z,26.47
2019-06-10T19:13:35.266Z,26.38
2019-06-10T19:16:04.313Z,26.35
2019-06-10T19:18:36.036Z,26.29
2019-06-10T19:21:08.843Z,26.22
2019-06-10T19:23:39.756Z,26.19
2019-06-10T19:26:13.852Z,26.11
2019-06-10T19:29:03.731Z,26.05
2019-06-10T19:31:36.239Z,26.02
2019-06-10T19:34:06.086Z,25.96
2019-06-10T19:36:37.669Z,25.92
2019-06-10T19:39:08.300Z,25.87
2019-06-10T19:41:40.657Z,25.84
2019-06-10T19:44:12.967Z,25.77
2019-06-10T19:46:43.159Z,25.71
2019-06-10T19:49:13.750Z,25.67
2019-06-10T19:51:46.591Z,25.57
2019-06-10T19:54:16.337Z,25.53
2019-06-10T19:56:46.916Z,25.44
2019-06-10T19:59:17.291Z,25.43
2019-06-10T20:01:48.841Z,25.40
2019-06-10T20:04:19.350Z,25.37
2019-06-10T20:06:50.819Z,25.34
2019-06-10T20:09:22.658Z,25.30
2019-06-10T20:11:53.242Z,25.26
2019-06-10T20:14:23.770Z,25.25
2019-06-10T20:16:54.175Z,25.19
2019-06-10T20:19:24.622Z,25.17
2019-06-10T20:21:55.190Z,25.15
2019-06-10T20:24:25.689Z,25.09
2019-06-10T20:26:56.078Z,25.05
2019-06-10T20:29:26.465Z,24.99
2019-06-10T20:31:56.886Z,24.96
2019-06-10T20:34:28.139Z,24.92
2019-06-10T20:36:58.723Z,24.89
2019-06-10T20:39:29.682Z,24.85
2019-06-10T20:42:02.716Z,24.78
2019-06-10T20:44:32.692Z,24.78
2019-06-10T20:47:03.296Z,24.75
2019-06-10T20:49:33.761Z,24.71
2019-06-10T20:52:11.151Z,24.68
2019-06-10T20:54:36.530Z,24.72
2019-06-10T20:57:07.029Z,24.67
2019-06-10T20:59:39.067Z,24.65
2019-06-10T21:02:09.636Z,24.64
2019-06-10T21:04:41.697Z,24.59
2019-06-10T21:07:13.232Z,24.55
2019-06-10T21:09:44.434Z,24.52
2019-06-10T21:12:16.021Z,24.50
2019-06-10T21:14:47.221Z,25.25
2019-06-10T21:17:18.569Z,26.43
2019-06-10T21:19:49.213Z,27.33
2019-06-10T21:22:19.579Z,27.97
2019-06-10T21:24:51.350Z,27.94
2019-06-10T21:27:23.868Z,27.35
2019-06-10T21:29:54.908Z,26.77
2019-06-10T21:32:25.329Z,26.29
2019-06-10T21:34:55.791Z,25.82
2019-06-10T21:37:26.283Z,25.50
2019-06-10T21:39:56.695Z,25.15
2019-06-10T21:42:27.275Z,24.86
2019-06-10T21:44:57.645Z,24.67
2019-06-10T21:47:28.045Z,24.47
2019-06-10T21:49:58.432Z,24.31
2019-06-10T21:52:28.978Z,24.94
2019-06-10T21:54:59.361Z,26.13
2019-06-10T21:57:29.836Z,27.04
2019-06-10T22:00:02.388Z,27.65
2019-06-10T22:02:32.464Z,27.53
2019-06-10T22:05:03.456Z,26.90
2019-06-10T22:07:33.988Z,26.25
2019-06-10T22:10:08.015Z,25.73
2019-06-10T22:12:38.515Z,25.27
2019-06-10T22:15:12.483Z,24.89
2019-06-10T22:17:44.213Z,24.58
2019-06-10T22:20:14.724Z,24.31
2019-06-10T22:22:46.490Z,24.14
2019-06-10T22:25:17.081Z,24.72
2019-06-10T22:27:47.879Z,25.91
2019-06-10T22:30:18.293Z,26.79
2019-06-10T22:32:52.672Z,27.33
2019-06-10T22:35:23.038Z,27.32
2019-06-10T22:37:55.426Z,26.70
2019-06-10T22:40:26.113Z,26.06
2019-06-10T22:42:56.856Z,25.57
2019-06-10T22:45:27.206Z,25.12
2019-06-10T22:47:58.466Z,24.74
2019-06-10T22:50:28.885Z,24.46
2019-06-10T22:52:59.702Z,24.20
2019-06-10T22:55:32.226Z,24.72
2019-06-10T22:58:05.804Z,25.84
2019-06-10T23:00:34.446Z,26.67
2019-06-10T23:03:04.933Z,27.19
2019-06-10T23:05:35.367Z,27.12
2019-06-10T23:08:05.782Z,26.44
2019-06-10T23:10:37.255Z,25.80
2019-06-10T23:13:07.835Z,25.25
2019-06-10T23:15:38.384Z,24.72
2019-06-10T23:18:08.904Z,24.24
2019-06-10T23:20:39.508Z,24.57
2019-06-10T23:23:12.663Z,25.54
2019-06-10T23:25:43.160Z,26.21
2019-06-10T23:28:13.616Z,26.66
2019-06-10T23:30:44.918Z,27.02
2019-06-10T23:33:15.525Z,27.24
2019-06-10T23:35:47.684Z,26.94
2019-06-10T23:38:18.251Z,26.12
2019-06-10T23:40:48.621Z,25.34
2019-06-10T23:43:19.023Z,24.65
2019-06-10T23:45:49.388Z,24.10
2019-06-10T23:48:22.558Z,24.33
2019-06-10T23:50:53.828Z,25.19
2019-06-10T23:53:24.185Z,25.80
2019-06-10T23:55:55.175Z,26.26
2019-06-10T23:58:26.685Z,26.64
